Time;durP1;ratioP1;P1;durP2;ratioP2;P2;SDS_P1;SDS_P2;PMS_P1;PMS_P2;Temp;Humidity;BMP_temperature;BMP_pressure;BME280_temperature;BME280_humidity;BME280_pressure;Samples;Min_cycle;Max_cycle;Signal;HPM_P1;HPM_P2
2022/01/27 00:02:48;;;;;;;7.47;4.90;;;;;;;;;;5137571;27;20218;-87
2022/01/27 00:05:17;;;;;;;5.00;3.60;;;;;;;;;;5151134;27;20183;-86
2022/01/27 00:07:53;;;;;;;6.10;4.37;;;;;;;;;;5150799;27;20204;-87
2022/01/27 00:10:29;;;;;;;5.00;4.50;;;;;;;;;;5150396;27;20726;-87
2022/01/27 00:12:56;;;;;;;4.37;3.73;;;;;;;;;;5150656;27;20211;-86
2022/01/27 00:15:31;;;;;;;4.03;3.63;;;;;;;;;;5150751;27;20190;-87
2022/01/27 00:18:01;;;;;;;3.97;3.57;;;;;;;;;;5150777;27;20182;-86
2022/01/27 00:20:29;;;;;;;4.80;3.40;;;;;;;;;;5150739;27;20243;-86
2022/01/27 00:22:56;;;;;;;4.93;4.07;;;;;;;;;;5150789;27;20225;-87
2022/01/27 00:25:23;;;;;;;3.87;3.37;;;;;;;;;;5150851;27;20197;-87
2022/01/27 00:27:50;;;;;;;7.37;4.73;;;;;;;;;;5150865;27;20277;-87
2022/01/27 00:30:17;;;;;;;5.27;3.50;;;;;;;;;;5150730;27;20281;-85
2022/01/27 00:32:46;;;;;;;5.27;3.93;;;;;;;;;;5150380;27;20195;-86
2022/01/27 00:35:13;;;;;;;4.13;3.63;;;;;;;;;;5150412;27;20670;-86
2022/01/27 00:37:41;;;;;;;4.27;3.87;;;;;;;;;;5150262;27;20206;-87
2022/01/27 00:40:12;;;;;;;5.40;3.33;;;;;;;;;;5150094;27;20193;-86
2022/01/27 00:42:39;;;;;;;3.50;3.20;;;;;;;;;;5149392;27;20222;-86
2022/01/27 00:45:06;;;;;;;3.97;3.60;;;;;;;;;;5150117;27;20194;-86
2022/01/27 00:47:34;;;;;;;4.90;3.90;;;;;;;;;;5150018;27;20194;-86
2022/01/27 00:50:06;;;;;;;6.37;4.37;;;;;;;;;;5149509;27;20196;-85
2022/01/27 00:52:38;;;;;;;7.23;4.30;;;;;;;;;;5148179;27;20191;-85
2022/01/27 00:55:06;;;;;;;5.13;3.83;;;;;;;;;;5135828;27;20209;-85
2022/01/27 00:57:46;;;;;;;5.60;4.20;;;;;;;;;;5135720;27;20655;-85
2022/01/27 01:00:17;;;;;;;6.00;4.27;;;;;;;;;;5135792;27;20663;-84
2022/01/27 01:02:50;;;;;;;5.47;4.20;;;;;;;;;;5135601;27;20209;-84
2022/01/27 01:05:35;;;;;;;6.20;4.03;;;;;;;;;;5135784;27;20282;-84
2022/01/27 01:08:31;;;;;;;5.03;3.80;;;;;;;;;;5135680;27;20651;-84
2022/01/27 01:16:30;;;;;;;5.27;3.90;;;;;;;;;;5114277;27;20254;-84
2022/01/27 01:19:06;;;;;;;5.57;3.60;;;;;;;;;;5135366;27;20714;-83
2022/01/27 01:21:51;;;;;;;3.90;3.40;;;;;;;;;;5135249;27;20645;-84
2022/01/27 01:29:55;;;;;;;3.73;3.00;;;;;;;;;;5135307;27;20655;-84
2022/01/27 01:32:38;;;;;;;4.03;3.60;;;;;;;;;;5135439;27;20221;-83
2022/01/27 01:35:08;;;;;;;3.47;3.17;;;;;;;;;;5135052;27;20193;-83
2022/01/27 01:37:39;;;;;;;5.20;3.73;;;;;;;;;;5135008;27;20194;-83
2022/01/27 01:40:08;;;;;;;5.97;4.07;;;;;;;;;;5134923;27;20189;-82
2022/01/27 01:42:35;;;;;;;3.83;3.13;;;;;;;;;;5134709;27;20227;-82
2022/01/27 01:45:04;;;;;;;4.87;4.13;;;;;;;;;;5134928;27;20244;-82
2022/01/27 01:47:31;;;;;;;6.50;4.47;;;;;;;;;;5134768;27;20206;-83
2022/01/27 01:49:58;;;;;;;5.07;4.00;;;;;;;;;;5134818;27;20199;-82
2022/01/27 01:52:26;;;;;;;4.87;3.67;;;;;;;;;;5135060;27;20622;-82
2022/01/27 01:54:55;;;;;;;6.17;4.17;;;;;;;;;;5134933;27;20608;-82
2022/01/27 01:57:22;;;;;;;4.33;3.30;;;;;;;;;;5134564;27;20194;-82
2022/01/27 01:59:49;;;;;;;7.10;3.60;;;;;;;;;;5134527;27;20197;-82
2022/01/27 02:02:17;;;;;;;3.90;3.47;;;;;;;;;;5134151;27;20602;-82
2022/01/27 02:04:54;;;;;;;4.07;3.67;;;;;;;;;;5133800;27;20203;-82
2022/01/27 02:07:31;;;;;;;6.17;3.73;;;;;;;;;;5134340;27;20199;-81
2022/01/27 02:10:13;;;;;;;4.70;4.00;;;;;;;;;;5134452;27;20273;-81
2022/01/27 02:18:23;;;;;;;6.70;4.73;;;;;;;;;;5111739;28;20235;-82
2022/01/27 02:20:52;;;;;;;5.23;4.73;;;;;;;;;;5111330;28;20199;-82
2022/01/27 02:23:28;;;;;;;5.20;4.27;;;;;;;;;;5121310;27;20235;-82
2022/01/27 02:25:55;;;;;;;7.57;4.87;;;;;;;;;;5134218;27;20202;-81
2022/01/27 02:28:22;;;;;;;7.00;4.40;;;;;;;;;;5134042;27;20194;-82
2022/01/27 02:30:49;;;;;;;4.57;3.90;;;;;;;;;;5133816;27;20746;-81
2022/01/27 02:33:16;;;;;;;6.97;5.13;;;;;;;;;;5133869;27;20187;-81
2022/01/27 02:35:43;;;;;;;10.13;5.30;;;;;;;;;;5134053;27;20202;-82
2022/01/27 02:38:12;;;;;;;8.93;5.43;;;;;;;;;;5133762;27;20689;-82
2022/01/27 02:40:55;;;;;;;6.33;4.97;;;;;;;;;;5133710;27;20232;-82
2022/01/27 02:43:22;;;;;;;5.60;4.83;;;;;;;;;;5133663;27;20205;-80
2022/01/27 02:46:00;;;;;;;7.07;5.33;;;;;;;;;;5133718;27;20186;-82
2022/01/27 02:48:30;;;;;;;7.60;5.70;;;;;;;;;;5133889;27;20647;-81
2022/01/27 02:50:58;;;;;;;5.37;4.83;;;;;;;;;;5133547;27;20290;-81
2022/01/27 02:53:26;;;;;;;7.80;5.57;;;;;;;;;;5133395;27;20659;-81
2022/01/27 02:55:53;;;;;;;5.40;4.90;;;;;;;;;;5133414;27;20198;-81
2022/01/27 02:58:20;;;;;;;8.03;6.10;;;;;;;;;;5133696;27;20679;-81
2022/01/27 03:00:48;;;;;;;6.00;4.80;;;;;;;;;;5133290;27;20230;-81
2022/01/27 03:03:15;;;;;;;7.70;6.17;;;;;;;;;;5133188;27;20222;-81
2022/01/27 03:05:42;;;;;;;6.73;5.17;;;;;;;;;;5133054;27;20659;-81
2022/01/27 03:08:09;;;;;;;6.67;5.47;;;;;;;;;;5133352;27;20194;-81
2022/01/27 03:10:40;;;;;;;6.00;5.37;;;;;;;;;;5133469;27;20686;-81
2022/01/27 03:13:07;;;;;;;7.17;5.00;;;;;;;;;;5133201;27;20703;-81
2022/01/27 03:15:34;;;;;;;9.27;6.67;;;;;;;;;;5133061;27;20698;-82
2022/01/27 03:18:01;;;;;;;10.07;5.63;;;;;;;;;;5132935;27;20198;-81
2022/01/27 03:20:32;;;;;;;9.00;6.00;;;;;;;;;;5133317;27;20190;-81
2022/01/27 03:23:00;;;;;;;5.13;4.50;;;;;;;;;;5133023;27;20256;-82
2022/01/27 03:25:28;;;;;;;8.10;6.50;;;;;;;;;;5133028;27;20194;-81
2022/01/27 03:27:56;;;;;;;8.37;5.97;;;;;;;;;;5132906;27;20224;-81
2022/01/27 03:30:24;;;;;;;8.20;5.73;;;;;;;;;;5132821;27;20195;-82
2022/01/27 03:32:51;;;;;;;14.20;9.30;;;;;;;;;;5132848;27;20198;-81
2022/01/27 03:35:18;;;;;;;9.53;7.03;;;;;;;;;;5132843;27;20203;-81
2022/01/27 03:37:45;;;;;;;11.20;6.60;;;;;;;;;;5132927;27;20678;-81
2022/01/27 03:40:13;;;;;;;9.03;6.60;;;;;;;;;;5132756;28;20199;-82
2022/01/27 03:42:49;;;;;;;11.10;6.63;;;;;;;;;;5132617;28;20230;-81
2022/01/27 03:45:18;;;;;;;8.97;6.73;;;;;;;;;;5132839;28;20222;-81
2022/01/27 03:47:45;;;;;;;9.50;5.93;;;;;;;;;;5132751;28;20201;-81
2022/01/27 03:50:12;;;;;;;8.20;5.97;;;;;;;;;;5133006;28;20205;-80
2022/01/27 03:52:39;;;;;;;11.07;6.90;;;;;;;;;;5132754;28;20194;-81
2022/01/27 03:55:08;;;;;;;17.93;11.00;;;;;;;;;;5132648;28;20194;-81
2022/01/27 03:57:35;;;;;;;12.63;9.60;;;;;;;;;;5132661;27;20289;-81
2022/01/27 04:00:02;;;;;;;137.47;78.37;;;;;;;;;;5132603;27;20195;-81
2022/01/27 04:02:30;;;;;;;17.77;12.63;;;;;;;;;;5132577;27;20222;-81
2022/01/27 04:04:57;;;;;;;5.97;4.83;;;;;;;;;;5132628;28;20205;-80
2022/01/27 04:07:25;;;;;;;4.87;4.37;;;;;;;;;;5132386;28;20199;-81
2022/01/27 04:09:52;;;;;;;13.93;10.53;;;;;;;;;;5132458;28;20680;-81
2022/01/27 04:12:19;;;;;;;14.47;11.37;;;;;;;;;;5132457;27;20199;-80
2022/01/27 04:14:47;;;;;;;22.43;16.43;;;;;;;;;;5132451;28;20237;-81
2022/01/27 04:17:14;;;;;;;70.80;45.23;;;;;;;;;;5132717;28;20596;-81
2022/01/27 04:19:42;;;;;;;34.90;22.17;;;;;;;;;;5132524;28;20205;-81
2022/01/27 04:22:09;;;;;;;29.47;18.33;;;;;;;;;;5132277;28;20675;-81
2022/01/27 04:24:37;;;;;;;18.20;13.47;;;;;;;;;;5132388;28;20202;-81
2022/01/27 04:27:07;;;;;;;12.90;9.17;;;;;;;;;;5131246;28;20313;-81
2022/01/27 04:29:38;;;;;;;30.53;27.33;;;;;;;;;;5134384;27;20201;-81
2022/01/27 04:32:08;;;;;;;11.27;9.90;;;;;;;;;;5135154;27;20190;-80
2022/01/27 04:34:39;;;;;;;29.50;20.73;;;;;;;;;;5135192;27;20269;-81
2022/01/27 04:37:10;;;;;;;41.67;27.63;;;;;;;;;;5135007;27;20270;-81
2022/01/27 04:39:43;;;;;;;27.63;19.07;;;;;;;;;;5135120;27;20218;-81
2022/01/27 04:42:15;;;;;;;17.97;16.13;;;;;;;;;;5134761;27;20227;-81
2022/01/27 04:44:49;;;;;;;12.40;9.40;;;;;;;;;;5135146;27;20708;-80
2022/01/27 04:47:22;;;;;;;17.07;10.90;;;;;;;;;;5134779;27;20186;-82
2022/01/27 04:49:50;;;;;;;9.50;8.20;;;;;;;;;;5134857;27;20187;-80
2022/01/27 04:52:18;;;;;;;14.63;9.57;;;;;;;;;;5135125;27;20199;-81
2022/01/27 04:54:55;;;;;;;7.97;6.20;;;;;;;;;;5134395;27;20194;-81
2022/01/27 04:57:25;;;;;;;9.97;5.67;;;;;;;;;;5135060;27;20214;-81
2022/01/27 04:59:52;;;;;;;5.07;3.73;;;;;;;;;;5134797;27;20199;-82
2022/01/27 05:02:27;;;;;;;5.00;3.57;;;;;;;;;;5134622;27;20289;-81
2022/01/27 05:04:54;;;;;;;3.53;3.07;;;;;;;;;;5134881;27;20189;-81
2022/01/27 05:07:22;;;;;;;2.93;2.73;;;;;;;;;;5134306;27;20673;-81
2022/01/27 05:09:54;;;;;;;10.47;7.00;;;;;;;;;;5141203;27;20201;-85
2022/01/27 05:12:31;;;;;;;5.57;4.73;;;;;;;;;;5155690;27;20353;-84
2022/01/27 05:14:59;;;;;;;5.10;3.70;;;;;;;;;;5155312;27;20192;-83
2022/01/27 05:17:27;;;;;;;4.23;3.37;;;;;;;;;;5137701;27;20627;-83
2022/01/27 05:19:54;;;;;;;3.27;2.97;;;;;;;;;;5134163;27;20199;-83
2022/01/27 05:22:22;;;;;;;4.13;3.73;;;;;;;;;;5133726;27;20195;-82
2022/01/27 05:24:50;;;;;;;3.47;2.70;;;;;;;;;;5133862;27;20313;-83
2022/01/27 05:27:18;;;;;;;3.87;3.20;;;;;;;;;;5134378;27;20243;-82
2022/01/27 05:29:45;;;;;;;4.97;3.70;;;;;;;;;;5134182;27;20224;-83
2022/01/27 05:32:12;;;;;;;4.50;3.50;;;;;;;;;;5133927;27;20578;-82
2022/01/27 05:34:39;;;;;;;5.47;3.73;;;;;;;;;;5133373;27;20201;-82
2022/01/27 05:37:07;;;;;;;4.27;3.87;;;;;;;;;;5133869;27;20191;-82
2022/01/27 05:39:35;;;;;;;5.57;3.53;;;;;;;;;;5133914;27;20191;-83
2022/01/27 05:42:03;;;;;;;4.20;2.83;;;;;;;;;;5133848;27;20242;-83
2022/01/27 05:44:33;;;;;;;3.50;3.20;;;;;;;;;;5133806;27;20233;-82
2022/01/27 05:47:00;;;;;;;4.37;3.17;;;;;;;;;;5134925;27;20209;-82
2022/01/27 05:49:27;;;;;;;4.83;3.70;;;;;;;;;;5134730;27;20198;-82
2022/01/27 05:51:55;;;;;;;4.80;4.07;;;;;;;;;;5134900;27;20630;-82
2022/01/27 05:54:22;;;;;;;7.40;4.27;;;;;;;;;;5134758;27;20198;-82
2022/01/27 05:56:51;;;;;;;4.97;4.23;;;;;;;;;;5134699;27;20252;-82
2022/01/27 05:59:18;;;;;;;4.43;3.83;;;;;;;;;;5134657;27;20191;-82
2022/01/27 06:01:45;;;;;;;6.57;5.77;;;;;;;;;;5134877;27;20194;-83
2022/01/27 06:04:12;;;;;;;7.60;5.97;;;;;;;;;;5134445;27;20229;-83
2022/01/27 06:06:40;;;;;;;7.73;6.93;;;;;;;;;;5134497;27;20205;-82
2022/01/27 06:09:07;;;;;;;7.17;5.23;;;;;;;;;;5134376;27;20678;-82
2022/01/27 06:11:34;;;;;;;4.83;4.00;;;;;;;;;;5134349;27;20191;-83
2022/01/27 06:14:03;;;;;;;4.23;3.93;;;;;;;;;;5134326;27;20195;-83
2022/01/27 06:16:30;;;;;;;3.60;3.17;;;;;;;;;;5134493;27;20194;-83
2022/01/27 06:18:57;;;;;;;3.70;3.30;;;;;;;;;;5134521;27;20226;-83
2022/01/27 06:21:25;;;;;;;4.43;3.33;;;;;;;;;;5134554;27;20582;-83
2022/01/27 06:23:52;;;;;;;4.53;3.60;;;;;;;;;;5134033;27;20222;-83
2022/01/27 06:26:19;;;;;;;3.40;3.10;;;;;;;;;;5134374;27;20634;-83
2022/01/27 06:28:46;;;;;;;4.53;3.10;;;;;;;;;;5134035;27;20201;-83
2022/01/27 06:31:15;;;;;;;4.97;3.23;;;;;;;;;;5134032;27;20194;-82
2022/01/27 06:33:42;;;;;;;7.33;4.07;;;;;;;;;;5133962;27;20194;-83
2022/01/27 06:36:09;;;;;;;7.03;5.47;;;;;;;;;;5134203;27;20198;-83
2022/01/27 06:38:43;;;;;;;11.97;8.67;;;;;;;;;;5133783;27;20206;-83
2022/01/27 06:41:11;;;;;;;30.77;20.33;;;;;;;;;;5133714;27;20222;-83
2022/01/27 06:43:38;;;;;;;29.80;18.10;;;;;;;;;;5133665;27;20211;-83
2022/01/27 06:46:05;;;;;;;11.00;7.30;;;;;;;;;;5133720;27;20298;-83
2022/01/27 06:48:34;;;;;;;8.10;6.17;;;;;;;;;;5137078;27;20210;-83
2022/01/27 06:51:04;;;;;;;14.07;9.27;;;;;;;;;;5154132;27;20198;-83
2022/01/27 06:53:31;;;;;;;14.90;9.77;;;;;;;;;;5154347;27;20639;-83
2022/01/27 06:55:59;;;;;;;10.07;6.97;;;;;;;;;;5154209;27;20288;-83
2022/01/27 06:58:26;;;;;;;8.80;6.50;;;;;;;;;;5154149;27;20201;-83
2022/01/27 07:00:53;;;;;;;91.73;41.20;;;;;;;;;;5154266;27;20700;-84
2022/01/27 07:03:20;;;;;;;50.17;25.47;;;;;;;;;;5154534;27;20220;-83
2022/01/27 07:05:49;;;;;;;25.57;12.50;;;;;;;;;;5153999;27;20201;-83
2022/01/27 07:08:16;;;;;;;14.27;7.57;;;;;;;;;;5154001;27;20200;-83
2022/01/27 07:10:43;;;;;;;19.17;14.83;;;;;;;;;;5154000;27;20208;-83
2022/01/27 07:13:10;;;;;;;18.20;12.57;;;;;;;;;;5153884;27;20190;-84
2022/01/27 07:15:37;;;;;;;12.17;9.43;;;;;;;;;;5154196;27;20650;-83
2022/01/27 07:18:05;;;;;;;10.50;6.77;;;;;;;;;;5153897;27;20197;-84
2022/01/27 07:20:32;;;;;;;7.57;5.77;;;;;;;;;;5153807;27;20198;-83
2022/01/27 07:23:00;;;;;;;12.10;7.97;;;;;;;;;;5153797;27;20200;-83
2022/01/27 07:25:28;;;;;;;7.80;6.27;;;;;;;;;;5153734;27;20224;-84
2022/01/27 07:27:56;;;;;;;11.87;8.43;;;;;;;;;;5153747;27;20194;-85
2022/01/27 07:30:23;;;;;;;13.47;9.67;;;;;;;;;;5153758;27;20205;-85
2022/01/27 07:32:50;;;;;;;7.77;6.63;;;;;;;;;;5154073;27;20193;-85
2022/01/27 07:35:17;;;;;;;8.83;7.27;;;;;;;;;;5154018;27;20662;-86
2022/01/27 07:37:46;;;;;;;4.97;3.90;;;;;;;;;;5153896;27;20198;-86
2022/01/27 07:40:15;;;;;;;7.53;5.17;;;;;;;;;;5153783;27;20194;-87
2022/01/27 07:42:42;;;;;;;7.47;5.33;;;;;;;;;;5153951;27;20321;-88
2022/01/27 07:45:10;;;;;;;8.10;5.00;;;;;;;;;;5153249;27;20719;-87
2022/01/27 07:47:37;;;;;;;5.03;4.20;;;;;;;;;;5153682;27;20658;-87
2022/01/27 07:50:13;;;;;;;8.67;4.77;;;;;;;;;;5154133;27;20194;-88
2022/01/27 07:52:41;;;;;;;5.97;4.97;;;;;;;;;;5153840;27;20424;-88
2022/01/27 07:55:09;;;;;;;6.53;5.60;;;;;;;;;;5154025;27;20194;-88
2022/01/27 07:57:41;;;;;;;4.70;3.90;;;;;;;;;;5154397;27;20276;-88
2022/01/27 08:00:10;;;;;;;5.43;3.77;;;;;;;;;;5154106;27;20196;-88
2022/01/27 08:02:37;;;;;;;11.00;5.40;;;;;;;;;;5153940;27;20190;-88
2022/01/27 08:05:05;;;;;;;4.73;4.13;;;;;;;;;;5157958;27;20623;-88
2022/01/27 08:07:32;;;;;;;6.07;4.63;;;;;;;;;;5158171;27;20197;-88
2022/01/27 08:10:05;;;;;;;7.60;5.23;;;;;;;;;;5158350;27;20190;-88
2022/01/27 08:12:33;;;;;;;6.60;5.13;;;;;;;;;;5157964;27;20288;-88
2022/01/27 08:15:02;;;;;;;7.37;5.43;;;;;;;;;;5158082;27;20205;-88
2022/01/27 08:17:30;;;;;;;8.80;7.67;;;;;;;;;;5158250;27;20240;-88
2022/01/27 08:19:57;;;;;;;11.17;9.23;;;;;;;;;;5158272;27;20315;-88
2022/01/27 08:22:24;;;;;;;9.23;7.97;;;;;;;;;;5158039;27;20209;-88
2022/01/27 08:24:51;;;;;;;7.97;7.17;;;;;;;;;;5157832;27;20218;-88
2022/01/27 08:27:24;;;;;;;5.20;4.13;;;;;;;;;;5157741;27;20197;-88
2022/01/27 08:29:57;;;;;;;6.90;4.57;;;;;;;;;;5157936;27;20629;-87
2022/01/27 08:32:33;;;;;;;5.70;4.37;;;;;;;;;;5157962;27;20209;-87
2022/01/27 08:35:00;;;;;;;5.50;4.00;;;;;;;;;;5157845;27;20257;-87
2022/01/27 08:37:37;;;;;;;4.97;4.20;;;;;;;;;;5157775;27;20198;-87
2022/01/27 08:40:05;;;;;;;3.60;3.30;;;;;;;;;;5156958;27;20288;-87
2022/01/27 08:42:32;;;;;;;5.17;3.50;;;;;;;;;;5157256;27;20653;-88
2022/01/27 08:44:59;;;;;;;5.43;3.70;;;;;;;;;;5157177;27;20217;-87
2022/01/27 08:47:28;;;;;;;6.53;4.43;;;;;;;;;;5157237;27;20212;-87
2022/01/27 08:49:55;;;;;;;6.03;5.40;;;;;;;;;;5156973;27;20201;-87
2022/01/27 08:52:28;;;;;;;4.63;3.60;;;;;;;;;;5157393;27;20201;-87
2022/01/27 08:55:01;;;;;;;3.97;3.30;;;;;;;;;;5157050;27;20304;-86
2022/01/27 08:57:29;;;;;;;3.57;3.00;;;;;;;;;;5156926;27;20225;-87
2022/01/27 08:59:56;;;;;;;3.47;3.17;;;;;;;;;;5157150;27;20309;-86
2022/01/27 09:02:23;;;;;;;4.33;3.93;;;;;;;;;;5157101;27;20194;-87
2022/01/27 09:04:52;;;;;;;3.97;3.00;;;;;;;;;;5156737;27;20214;-87
2022/01/27 09:07:19;;;;;;;4.23;3.13;;;;;;;;;;5156772;27;20240;-87
2022/01/27 09:09:47;;;;;;;5.20;3.27;;;;;;;;;;5157135;27;20193;-88
2022/01/27 09:12:15;;;;;;;4.37;3.53;;;;;;;;;;5157055;27;20197;-88
2022/01/27 09:14:43;;;;;;;4.73;2.90;;;;;;;;;;5156639;27;20547;-87
2022/01/27 09:17:10;;;;;;;8.03;2.60;;;;;;;;;;5156676;27;20186;-87
2022/01/27 09:19:39;;;;;;;3.07;2.77;;;;;;;;;;5156648;27;20201;-87
2022/01/27 09:22:12;;;;;;;4.87;2.93;;;;;;;;;;5156696;27;20204;-87
2022/01/27 09:24:48;;;;;;;3.23;2.90;;;;;;;;;;5156376;27;20202;-87
2022/01/27 09:27:16;;;;;;;4.07;3.60;;;;;;;;;;5156598;27;20238;-88
2022/01/27 09:29:43;;;;;;;6.10;3.70;;;;;;;;;;5156547;27;20194;-87
2022/01/27 09:32:11;;;;;;;6.17;4.17;;;;;;;;;;5156461;27;20576;-88
2022/01/27 09:34:38;;;;;;;8.30;4.27;;;;;;;;;;5156488;27;20196;-87
2022/01/27 09:37:07;;;;;;;3.13;2.80;;;;;;;;;;5156768;27;20198;-88
2022/01/27 09:39:35;;;;;;;2.90;2.60;;;;;;;;;;5156309;27;20681;-88
2022/01/27 09:42:05;;;;;;;3.67;3.17;;;;;;;;;;5156056;27;20236;-88
2022/01/27 09:44:33;;;;;;;3.30;3.00;;;;;;;;;;5156716;27;20217;-88
2022/01/27 09:47:01;;;;;;;4.10;2.67;;;;;;;;;;5156353;27;20186;-87
2022/01/27 09:49:36;;;;;;;4.33;2.67;;;;;;;;;;5156212;27;20243;-88
2022/01/27 09:52:05;;;;;;;3.17;2.47;;;;;;;;;;5155841;27;20186;-87
2022/01/27 09:54:34;;;;;;;2.70;2.50;;;;;;;;;;5156241;27;20194;-88
2022/01/27 09:57:02;;;;;;;3.87;2.73;;;;;;;;;;5156343;27;20300;-88
2022/01/27 09:59:29;;;;;;;3.87;2.80;;;;;;;;;;5156232;27;20216;-87
2022/01/27 10:01:59;;;;;;;3.73;3.27;;;;;;;;;;5155706;27;20193;-88
2022/01/27 10:04:45;;;;;;;3.57;3.17;;;;;;;;;;5156282;27;20202;-87
2022/01/27 10:07:14;;;;;;;3.93;2.93;;;;;;;;;;5155648;27;20203;-88
2022/01/27 10:09:56;;;;;;;2.53;2.33;;;;;;;;;;5156095;27;20630;-87
2022/01/27 10:12:26;;;;;;;2.73;2.53;;;;;;;;;;5155912;27;20189;-88
2022/01/27 10:15:02;;;;;;;4.07;3.00;;;;;;;;;;5155897;27;20247;-88
2022/01/27 10:17:31;;;;;;;2.83;2.63;;;;;;;;;;5155673;27;20186;-88
2022/01/27 10:19:58;;;;;;;3.00;2.70;;;;;;;;;;5155898;27;20228;-87
2022/01/27 10:22:25;;;;;;;3.90;2.77;;;;;;;;;;5155955;27;20629;-88
2022/01/27 10:25:09;;;;;;;3.97;3.40;;;;;;;;;;5155364;27;20218;-88
2022/01/27 10:27:56;;;;;;;3.23;2.93;;;;;;;;;;5155351;27;20178;-88
2022/01/27 10:33:13;;;;;;;10.77;8.47;;;;;;;;;;5155446;27;20197;-88
2022/01/27 10:35:40;;;;;;;14.03;8.77;;;;;;;;;;5155310;27;20197;-88
2022/01/27 10:38:08;;;;;;;8.33;5.37;;;;;;;;;;5155512;27;20635;-88
2022/01/27 10:40:39;;;;;;;4.57;3.47;;;;;;;;;;5155688;27;20280;-88
2022/01/27 10:43:09;;;;;;;2.77;2.53;;;;;;;;;;5155044;27;20222;-88
2022/01/27 10:45:38;;;;;;;4.20;2.33;;;;;;;;;;5155462;27;20675;-88
2022/01/27 10:48:22;;;;;;;8.33;4.10;;;;;;;;;;5155044;27;20198;-88
2022/01/27 10:50:59;;;;;;;7.30;3.63;;;;;;;;;;5154801;27;20182;-88
2022/01/27 10:53:54;;;;;;;3.20;2.57;;;;;;;;;;5154840;27;20194;-87
2022/01/27 10:56:25;;;;;;;3.33;3.00;;;;;;;;;;5154460;27;20658;-88
2022/01/27 10:58:54;;;;;;;2.20;2.00;;;;;;;;;;5155291;27;20190;-87
2022/01/27 11:01:31;;;;;;;2.63;2.27;;;;;;;;;;5155069;27;20570;-88
2022/01/27 11:04:04;;;;;;;2.73;2.53;;;;;;;;;;5154757;27;20634;-87
2022/01/27 11:06:33;;;;;;;2.67;2.47;;;;;;;;;;5154467;27;20202;-88
2022/01/27 11:09:06;;;;;;;5.30;2.20;;;;;;;;;;5154709;27;20200;-88
2022/01/27 11:11:38;;;;;;;1.90;1.80;;;;;;;;;;5133531;27;20195;-87
2022/01/27 11:14:05;;;;;;;1.70;1.60;;;;;;;;;;5133963;27;20221;-88
2022/01/27 11:16:39;;;;;;;1.80;1.70;;;;;;;;;;5133998;27;20277;-88
2022/01/27 11:19:22;;;;;;;2.40;2.20;;;;;;;;;;5133965;27;20194;-88
2022/01/27 11:21:56;;;;;;;3.97;3.50;;;;;;;;;;5133828;27;20251;-88
2022/01/27 11:24:29;;;;;;;3.57;3.27;;;;;;;;;;5133831;27;20206;-88
2022/01/27 11:26:59;;;;;;;1.50;1.40;;;;;;;;;;5134082;27;20223;-88
2022/01/27 11:29:26;;;;;;;3.30;2.47;;;;;;;;;;5133849;27;20187;-88
2022/01/27 11:31:59;;;;;;;2.40;1.90;;;;;;;;;;5133542;27;20194;-88
2022/01/27 11:34:46;;;;;;;2.07;1.83;;;;;;;;;;5133503;27;20182;-88
2022/01/27 11:37:18;;;;;;;2.37;2.17;;;;;;;;;;5133599;27;20194;-88
2022/01/27 11:39:49;;;;;;;3.07;2.10;;;;;;;;;;5133871;27;20221;-87
2022/01/27 11:42:20;;;;;;;1.90;1.80;;;;;;;;;;5133116;27;20714;-88
2022/01/27 11:44:48;;;;;;;2.00;1.80;;;;;;;;;;5133317;27;20202;-88
2022/01/27 11:47:22;;;;;;;3.07;2.63;;;;;;;;;;5133340;27;20202;-88
2022/01/27 11:49:57;;;;;;;1.30;1.30;;;;;;;;;;5133403;27;20195;-88
2022/01/27 11:52:28;;;;;;;2.97;2.67;;;;;;;;;;5133500;27;20178;-88
2022/01/27 11:54:56;;;;;;;2.27;2.07;;;;;;;;;;5133275;27;20274;-87
2022/01/27 11:57:45;;;;;;;3.20;2.90;;;;;;;;;;5133036;28;20198;-88
2022/01/27 12:00:15;;;;;;;2.73;2.53;;;;;;;;;;5133643;27;20187;-88
2022/01/27 12:03:15;;;;;;;2.57;2.37;;;;;;;;;;5133336;27;20226;-88
2022/01/27 12:05:46;;;;;;;2.13;1.93;;;;;;;;;;5124640;28;20222;-87
2022/01/27 12:08:26;;;;;;;2.07;1.90;;;;;;;;;;5133141;27;20348;-88
2022/01/27 12:10:57;;;;;;;2.17;1.97;;;;;;;;;;5133004;27;20205;-87
2022/01/27 12:14:02;;;;;;;1.50;1.40;;;;;;;;;;5133474;27;20191;-88
2022/01/27 12:16:53;;;;;;;2.43;2.23;;;;;;;;;;5133191;27;20754;-88
2022/01/27 12:19:21;;;;;;;4.73;2.50;;;;;;;;;;5132981;27;20193;-88
2022/01/27 12:22:01;;;;;;;5.63;4.27;;;;;;;;;;5133243;27;20199;-88
2022/01/27 12:24:29;;;;;;;3.43;3.13;;;;;;;;;;5132991;27;20193;-88
2022/01/27 12:26:59;;;;;;;3.17;2.70;;;;;;;;;;5133000;27;20219;-88
2022/01/27 12:29:33;;;;;;;2.20;2.00;;;;;;;;;;5133208;27;20663;-88
2022/01/27 12:32:02;;;;;;;2.53;2.00;;;;;;;;;;5133111;27;20202;-88
2022/01/27 12:34:29;;;;;;;3.23;2.87;;;;;;;;;;5133324;27;20201;-88
2022/01/27 12:37:02;;;;;;;3.37;3.07;;;;;;;;;;5132814;27;20197;-88
2022/01/27 12:39:32;;;;;;;1.93;1.83;;;;;;;;;;5133262;27;20629;-88
2022/01/27 12:42:04;;;;;;;2.07;1.87;;;;;;;;;;5132493;27;20237;-88
2022/01/27 12:44:33;;;;;;;2.17;1.97;;;;;;;;;;5133006;27;20198;-88
2022/01/27 12:47:10;;;;;;;2.00;1.80;;;;;;;;;;5132603;27;20223;-88
2022/01/27 12:49:42;;;;;;;2.17;1.77;;;;;;;;;;5134411;27;20183;-88
2022/01/27 12:52:15;;;;;;;4.00;2.60;;;;;;;;;;5136599;27;20226;-88
2022/01/27 12:54:43;;;;;;;2.33;2.13;;;;;;;;;;5136660;27;20217;-88
2022/01/27 12:57:12;;;;;;;2.57;2.00;;;;;;;;;;5136386;27;20201;-88
2022/01/27 12:59:42;;;;;;;2.00;1.83;;;;;;;;;;5136353;27;20195;-88
2022/01/27 13:02:11;;;;;;;2.63;2.27;;;;;;;;;;5136257;27;20198;-88
2022/01/27 13:04:39;;;;;;;2.23;2.03;;;;;;;;;;5136609;27;20221;-88
2022/01/27 13:07:07;;;;;;;1.97;1.87;;;;;;;;;;5136272;27;20271;-88
2022/01/27 13:09:35;;;;;;;1.97;1.70;;;;;;;;;;5136323;27;20282;-88
2022/01/27 13:12:15;;;;;;;14.53;2.57;;;;;;;;;;5136190;27;20285;-88
2022/01/27 13:15:04;;;;;;;1.30;1.30;;;;;;;;;;5135857;27;20182;-88
2022/01/27 13:17:36;;;;;;;3.77;2.03;;;;;;;;;;5136270;27;20175;-88
2022/01/27 13:20:18;;;;;;;1.87;1.77;;;;;;;;;;5136095;27;20233;-88
2022/01/27 13:22:47;;;;;;;3.13;2.50;;;;;;;;;;5136235;27;20183;-88
2022/01/27 13:25:15;;;;;;;2.80;2.53;;;;;;;;;;5135781;27;20248;-88
2022/01/27 13:27:43;;;;;;;2.40;2.20;;;;;;;;;;5136017;27;20274;-88
2022/01/27 13:30:15;;;;;;;4.87;3.50;;;;;;;;;;5136293;27;20282;-88
2022/01/27 13:32:45;;;;;;;2.80;2.60;;;;;;;;;;5135828;27;20662;-88
2022/01/27 13:35:12;;;;;;;2.90;2.00;;;;;;;;;;5136265;27;20246;-88
2022/01/27 13:37:40;;;;;;;12.97;6.60;;;;;;;;;;5136027;27;20198;-88
2022/01/27 13:43:11;;;;;;;1.60;1.50;;;;;;;;;;5113837;27;20620;-88
2022/01/27 13:45:40;;;;;;;2.30;2.10;;;;;;;;;;5136170;27;20218;-87
2022/01/27 13:48:21;;;;;;;6.70;4.00;;;;;;;;;;5136184;27;20708;-89
2022/01/27 13:50:56;;;;;;;15.70;8.63;;;;;;;;;;5136180;27;20233;-88
2022/01/27 13:53:23;;;;;;;2.10;1.70;;;;;;;;;;5135500;27;20226;-88
2022/01/27 13:56:09;;;;;;;17.03;13.23;;;;;;;;;;5135232;27;20240;-88
2022/01/27 13:58:36;;;;;;;11.40;7.63;;;;;;;;;;5135784;27;20194;-87
2022/01/27 14:01:07;;;;;;;45.30;24.53;;;;;;;;;;5136283;27;20209;-89
2022/01/27 14:03:42;;;;;;;2.40;2.20;;;;;;;;;;5136198;27;20706;-88
2022/01/27 14:06:13;;;;;;;3.40;3.07;;;;;;;;;;5135019;27;20274;-88
2022/01/27 14:08:44;;;;;;;2.00;1.90;;;;;;;;;;5134976;27;20290;-88
2022/01/27 14:11:19;;;;;;;1.70;1.60;;;;;;;;;;5134838;27;20187;-88
2022/01/27 14:13:54;;;;;;;2.80;2.10;;;;;;;;;;5134828;27;20269;-88
2022/01/27 14:16:27;;;;;;;4.23;3.23;;;;;;;;;;5135235;27;20183;-88
2022/01/27 14:18:54;;;;;;;2.37;1.70;;;;;;;;;;5135201;27;20248;-88
2022/01/27 14:21:23;;;;;;;1.50;1.40;;;;;;;;;;5135228;27;20195;-87
2022/01/27 14:24:07;;;;;;;5.60;3.30;;;;;;;;;;5134830;27;20686;-88
2022/01/27 14:26:39;;;;;;;2.20;2.00;;;;;;;;;;5134803;27;20637;-89
2022/01/27 14:29:09;;;;;;;1.60;1.50;;;;;;;;;;5135144;27;20185;-88
2022/01/27 14:31:40;;;;;;;1.83;1.70;;;;;;;;;;5134757;27;20195;-89
2022/01/27 14:34:07;;;;;;;2.67;2.47;;;;;;;;;;5134604;27;20179;-88
2022/01/27 14:36:41;;;;;;;3.80;3.37;;;;;;;;;;5134617;27;20202;-88
2022/01/27 14:39:14;;;;;;;2.70;2.50;;;;;;;;;;5134742;27;20653;-88
2022/01/27 14:41:41;;;;;;;5.67;4.50;;;;;;;;;;5133967;27;20233;-88
2022/01/27 14:44:12;;;;;;;4.17;3.77;;;;;;;;;;5134466;27;20191;-88
2022/01/27 14:46:42;;;;;;;2.37;2.17;;;;;;;;;;5134083;27;20313;-88
2022/01/27 14:49:11;;;;;;;4.77;4.33;;;;;;;;;;5134322;27;20190;-88
2022/01/27 14:51:39;;;;;;;4.03;3.63;;;;;;;;;;5134622;27;20226;-88
2022/01/27 14:54:07;;;;;;;4.33;3.60;;;;;;;;;;5134846;27;20191;-88
2022/01/27 14:56:35;;;;;;;3.27;2.97;;;;;;;;;;5134332;27;20685;-88
2022/01/27 14:59:03;;;;;;;4.90;3.80;;;;;;;;;;5134139;27;20191;-88
2022/01/27 15:01:40;;;;;;;4.27;3.87;;;;;;;;;;5133907;27;20659;-88
2022/01/27 15:04:08;;;;;;;4.00;3.33;;;;;;;;;;5134390;27;20221;-89
2022/01/27 15:06:36;;;;;;;4.83;3.73;;;;;;;;;;5133805;27;20313;-88
2022/01/27 15:09:03;;;;;;;4.73;4.23;;;;;;;;;;5134521;27;20199;-89
2022/01/27 15:11:31;;;;;;;5.23;4.50;;;;;;;;;;5134106;27;20194;-89
2022/01/27 15:18:48;;;;;;;5.97;4.83;;;;;;;;;;5133850;27;20247;-88
2022/01/27 15:19:37;;;;;;;6.20;5.30;;;;;;;;;;5134161;27;20182;-88
2022/01/27 15:22:04;;;;;;;7.43;4.90;;;;;;;;;;5133857;27;20240;-88
2022/01/27 15:24:32;;;;;;;5.00;4.50;;;;;;;;;;5133761;27;20194;-88
2022/01/27 15:26:59;;;;;;;7.53;5.03;;;;;;;;;;5133672;27;20226;-88